Main page
METAR-TAF:

METAR-TAF

Airports :

Kish, Iran

Kish International Airport

latitude: 26-31-36N, longitude: 053-58-54E, elevation: 30 m

Current weather observation

The report was made 27 minutes ago, at 16:00 UTC
Calm wind
Temperature 19°C
Humidity 78%
Pressure 1021 hPa
Visibility 10 km or more
no clouds below 1500 m and no cumulonimbus

METAR: OIBK 181600Z 00000KT CAVOK 19/15 Q1021

Time: 19:57 (16:27 UTC)

Forecast

The report was made 5 hours and 27 minutes ago, at 11:00 UTC
Forecast valid from 18 at 12 UTC to 19 at 18 UTC
Wind 8 kt from the Northwest
Visibility: 7000 m
Few clouds at a height of 3000 ft
Temporary
from 18 at 20 UTC to 19 at 03 UTC
Visibility: 4000 m
mist

TAF: OIBK 181100Z 1812/1918 32004MPS 7000 FEW030 TEMPO 1820/1903 4000 BR

Weather observations and forecasts of more than 4000 airports (METAR and TAF reports).

The available stations are represented by yellow and red dots on the map.

Hover mouse over dot to see the name of the station.

Then click to see weather observations and forecasts.

To change the map : click on the green buttons with a black cross to zoom in, on the green button with a dash to zoom out, or on the green arrows for adjacent maps.


METAR-TAF: